Time;durP1;ratioP1;P1;durP2;ratioP2;P2;SDS_P1;SDS_P2;PMS_P1;PMS_P2;Temp;Humidity;BMP_temperature;BMP_pressure;BME280_temperature;BME280_humidity;BME280_pressure;Samples;Min_cycle;Max_cycle;Signal;HPM_P1;HPM_P2
2021/12/15 00:01:42;;;;;;;22.10;10.47;;;6.40;99.90;;;;;;4120250;28;20472;-82
2021/12/15 00:03:45;;;;;;;23.00;10.60;;;6.40;99.90;;;;;;4111868;28;20491;-81
2021/12/15 00:05:49;;;;;;;27.73;11.93;;;6.40;99.90;;;;;;4099485;28;20915;-81
2021/12/15 00:07:53;;;;;;;23.87;10.80;;;6.40;99.90;;;;;;4106218;28;20479;-81
2021/12/15 00:09:56;;;;;;;21.83;10.47;;;6.40;99.90;;;;;;4101039;28;22197;-81
2021/12/15 00:12:02;;;;;;;22.70;10.93;;;6.40;99.90;;;;;;4115204;28;20568;-81
2021/12/15 00:14:06;;;;;;;23.97;11.43;;;6.40;99.90;;;;;;4104124;28;20570;-81
2021/12/15 00:16:10;;;;;;;24.70;11.63;;;6.40;99.90;;;;;;4101099;28;21041;-81
2021/12/15 00:18:13;;;;;;;21.13;11.30;;;6.40;99.90;;;;;;4116538;28;20959;-82
2021/12/15 00:20:17;;;;;;;23.77;11.23;;;6.40;99.90;;;;;;4106160;28;20463;-81
2021/12/15 00:22:20;;;;;;;22.53;10.27;;;6.40;99.90;;;;;;4106181;28;20510;-82
2021/12/15 00:24:23;;;;;;;27.60;11.37;;;6.40;99.90;;;;;;4103790;28;20483;-81
2021/12/15 00:26:25;;;;;;;26.67;11.07;;;6.40;99.90;;;;;;4103158;28;20915;-81
2021/12/15 00:28:27;;;;;;;24.07;11.73;;;6.40;99.90;;;;;;4100706;28;20456;-81
2021/12/15 00:30:29;;;;;;;25.67;11.03;;;6.40;99.90;;;;;;4111565;28;20581;-81
2021/12/15 00:32:31;;;;;;;25.70;11.93;;;6.40;99.90;;;;;;4105504;28;20829;-81
2021/12/15 00:34:37;;;;;;;23.33;11.40;;;6.40;99.90;;;;;;4108528;28;20962;-81
2021/12/15 00:36:43;;;;;;;21.27;10.43;;;6.40;99.90;;;;;;4110998;28;20467;-81
2021/12/15 00:38:47;;;;;;;23.37;10.47;;;6.40;99.90;;;;;;4114703;28;20520;-81
2021/12/15 00:40:49;;;;;;;24.50;11.00;;;6.40;99.90;;;;;;4114598;28;20505;-81
2021/12/15 00:42:51;;;;;;;24.73;11.03;;;6.50;99.90;;;;;;4115120;28;20464;-81
2021/12/15 00:44:53;;;;;;;23.30;11.67;;;6.40;99.90;;;;;;4113995;28;20508;-81
2021/12/15 00:46:55;;;;;;;21.67;10.23;;;6.40;99.90;;;;;;4115664;28;20466;-81
2021/12/15 00:48:58;;;;;;;23.33;11.70;;;6.40;99.90;;;;;;4112025;28;20482;-81
2021/12/15 00:51:00;;;;;;;23.33;10.77;;;6.40;99.90;;;;;;4115630;28;21049;-81
2021/12/15 00:53:03;;;;;;;22.20;10.70;;;6.40;99.90;;;;;;4114966;28;20545;-81
2021/12/15 00:55:12;;;;;;;19.50;10.37;;;6.40;99.90;;;;;;4111187;28;20497;-81
2021/12/15 00:57:14;;;;;;;20.47;10.43;;;6.40;99.90;;;;;;4099833;29;20976;-81
2021/12/15 00:59:16;;;;;;;21.53;10.13;;;6.40;99.90;;;;;;4098933;29;20562;-81
2021/12/15 01:01:18;;;;;;;21.83;11.40;;;6.40;99.90;;;;;;4104392;28;20576;-81
2021/12/15 01:03:20;;;;;;;22.40;11.00;;;6.40;99.90;;;;;;4114302;28;20560;-81
2021/12/15 01:05:24;;;;;;;24.40;11.17;;;6.40;99.90;;;;;;4128458;23;20588;-77
2021/12/15 01:07:26;;;;;;;22.93;10.67;;;6.40;99.90;;;;;;4110237;28;20545;-78
2021/12/15 01:09:32;;;;;;;20.57;10.23;;;6.40;99.90;;;;;;4113092;28;20553;-78
2021/12/15 01:11:54;;;;;;;20.90;10.00;;;6.40;99.90;;;;;;4101124;28;20502;-78
2021/12/15 01:21:00;;;;;;;23.93;10.93;;;6.40;99.90;;;;;;4111045;28;20523;-78
2021/12/15 01:23:07;;;;;;;22.93;10.67;;;6.50;99.90;;;;;;4109604;28;20548;-79
2021/12/15 01:25:12;;;;;;;23.37;11.00;;;6.50;99.90;;;;;;4099178;28;21011;-78
2021/12/15 01:27:15;;;;;;;21.00;11.03;;;6.40;99.90;;;;;;4098116;28;20467;-78
2021/12/15 01:29:19;;;;;;;23.30;11.13;;;6.50;99.90;;;;;;4104380;28;20463;-77
2021/12/15 01:31:21;;;;;;;24.17;11.27;;;6.50;99.90;;;;;;4103270;28;20491;-78
2021/12/15 01:33:25;;;;;;;23.33;11.10;;;6.50;99.90;;;;;;4101450;28;20955;-77
2021/12/15 01:35:27;;;;;;;20.80;10.20;;;6.50;99.90;;;;;;4104284;28;20578;-77
2021/12/15 01:37:29;;;;;;;24.67;11.37;;;6.50;99.90;;;;;;4101093;28;20545;-77
2021/12/15 01:39:31;;;;;;;21.97;10.87;;;6.50;99.90;;;;;;4105524;28;20493;-81
2021/12/15 01:41:34;;;;;;;22.60;10.73;;;6.40;99.90;;;;;;4103523;28;20993;-79
2021/12/15 01:43:50;;;;;;;21.97;10.33;;;6.40;99.90;;;;;;4114301;28;20462;-77
2021/12/15 01:48:16;;;;;;;22.20;10.40;;;6.50;99.90;;;;;;4102534;28;20497;-77
2021/12/15 01:50:18;;;;;;;21.43;9.37;;;6.50;99.90;;;;;;4107178;28;20991;-81
2021/12/15 01:52:22;;;;;;;20.57;9.07;;;6.40;99.90;;;;;;4115856;28;20541;-82
2021/12/15 01:54:25;;;;;;;21.67;10.63;;;6.40;99.90;;;;;;4114095;28;20489;-80
2021/12/15 01:56:28;;;;;;;20.57;9.60;;;6.50;99.90;;;;;;4114775;28;20472;-79
2021/12/15 01:58:30;;;;;;;21.80;10.20;;;6.40;99.90;;;;;;4100904;28;20472;-77
2021/12/15 02:00:38;;;;;;;21.07;10.27;;;6.50;99.90;;;;;;4100552;29;20467;-77
2021/12/15 02:02:41;;;;;;;19.17;9.70;;;6.50;99.90;;;;;;4102027;28;20487;-77
2021/12/15 02:04:45;;;;;;;20.77;9.77;;;6.40;99.90;;;;;;4107062;28;20488;-79
2021/12/15 02:06:50;;;;;;;22.57;10.13;;;6.40;99.90;;;;;;4106516;28;20464;-78
2021/12/15 02:08:52;;;;;;;19.83;9.93;;;6.50;99.90;;;;;;4112890;28;20460;-79
2021/12/15 02:10:54;;;;;;;19.83;9.53;;;6.40;99.90;;;;;;4109763;28;20560;-79
2021/12/15 02:12:58;;;;;;;22.70;10.77;;;6.50;99.90;;;;;;4114834;28;20509;-77
2021/12/15 02:15:00;;;;;;;18.53;9.97;;;6.40;99.90;;;;;;4103413;28;20578;-77
2021/12/15 02:17:04;;;;;;;19.63;9.37;;;6.50;99.90;;;;;;4105294;28;20478;-78
2021/12/15 02:19:06;;;;;;;19.57;8.67;;;6.50;99.90;;;;;;4110304;28;20483;-77
2021/12/15 02:21:12;;;;;;;21.57;9.87;;;6.50;99.90;;;;;;4109497;28;20470;-80
2021/12/15 02:23:17;;;;;;;22.77;9.83;;;6.40;99.90;;;;;;4106732;28;20545;-79
2021/12/15 02:25:20;;;;;;;20.10;9.73;;;6.40;99.90;;;;;;4103962;28;20506;-82
2021/12/15 02:27:22;;;;;;;21.70;9.87;;;6.50;99.90;;;;;;4105159;28;20497;-81
2021/12/15 02:29:25;;;;;;;22.17;10.10;;;6.40;99.90;;;;;;4103903;28;20550;-79
2021/12/15 02:31:39;;;;;;;21.40;9.90;;;6.40;99.90;;;;;;4108457;28;20492;-77
2021/12/15 02:33:55;;;;;;;19.00;9.57;;;6.40;99.90;;;;;;4106637;28;20478;-78
2021/12/15 02:38:18;;;;;;;23.53;10.40;;;6.50;99.90;;;;;;4112119;28;20960;-78
2021/12/15 02:40:20;;;;;;;23.07;10.40;;;6.40;99.90;;;;;;4114403;28;20970;-79
2021/12/15 02:42:25;;;;;;;20.67;10.27;;;6.40;99.90;;;;;;4109331;28;20569;-77
2021/12/15 02:44:28;;;;;;;17.13;8.80;;;6.40;99.90;;;;;;4100336;28;20562;-77
2021/12/15 02:46:32;;;;;;;20.87;9.70;;;6.40;99.90;;;;;;4115610;28;20461;-78
2021/12/15 02:48:34;;;;;;;19.57;9.33;;;6.40;99.90;;;;;;4109207;28;20469;-81
2021/12/15 02:50:37;;;;;;;22.33;10.60;;;6.40;99.90;;;;;;4103983;28;20502;-80
2021/12/15 02:52:40;;;;;;;20.43;10.00;;;6.40;99.90;;;;;;4106881;28;20562;-79
2021/12/15 02:54:44;;;;;;;21.23;9.37;;;6.40;99.90;;;;;;4109943;28;20582;-79
2021/12/15 02:56:49;;;;;;;20.40;9.30;;;6.40;99.90;;;;;;4102391;28;20553;-77
2021/12/15 02:58:55;;;;;;;20.40;9.43;;;6.40;99.90;;;;;;4113660;28;20465;-79
2021/12/15 03:01:02;;;;;;;21.10;9.63;;;6.40;99.90;;;;;;4115392;28;20846;-77
2021/12/15 03:05:25;;;;;;;16.20;8.73;;;6.40;99.90;;;;;;4110708;28;20993;-80
2021/12/15 03:07:33;;;;;;;20.87;9.37;;;6.40;99.90;;;;;;4115016;28;20466;-79
2021/12/15 03:16:46;;;;;;;18.73;9.53;;;6.40;99.90;;;;;;4096963;28;20460;-78
2021/12/15 03:18:49;;;;;;;19.47;9.43;;;6.40;99.90;;;;;;4098248;28;20477;-77
2021/12/15 03:20:54;;;;;;;21.53;9.80;;;6.40;99.90;;;;;;4115300;28;20464;-82
2021/12/15 03:22:57;;;;;;;18.00;8.77;;;6.40;99.90;;;;;;4104103;28;21221;-77
2021/12/15 03:24:59;;;;;;;19.10;10.17;;;6.40;99.90;;;;;;4116761;28;20503;-77
2021/12/15 03:27:06;;;;;;;17.80;8.43;;;6.40;99.90;;;;;;4098667;28;20479;-77
2021/12/15 03:34:10;;;;;;;18.97;8.97;;;6.40;99.90;;;;;;4099071;28;20824;-79
2021/12/15 03:36:24;;;;;;;17.43;8.57;;;6.40;99.90;;;;;;4098652;29;20957;-77
2021/12/15 03:38:26;;;;;;;19.00;9.10;;;6.40;99.90;;;;;;4109415;28;20475;-77
2021/12/15 03:40:37;;;;;;;16.00;7.90;;;6.40;99.90;;;;;;4102307;28;20462;-77
2021/12/15 03:42:43;;;;;;;19.53;8.23;;;6.50;99.90;;;;;;4098335;28;22310;-78
2021/12/15 03:44:47;;;;;;;17.97;8.80;;;6.50;99.90;;;;;;4108914;28;20518;-77
2021/12/15 03:46:50;;;;;;;17.00;8.47;;;6.50;99.90;;;;;;4110469;28;20485;-78
2021/12/15 03:48:52;;;;;;;17.63;8.83;;;6.50;99.90;;;;;;4110289;28;20477;-80
2021/12/15 03:50:56;;;;;;;17.07;8.80;;;6.50;99.90;;;;;;4105147;28;20476;-80
2021/12/15 03:52:58;;;;;;;18.00;8.77;;;6.50;99.90;;;;;;4109184;28;21011;-77
2021/12/15 03:55:00;;;;;;;17.97;8.77;;;6.50;99.90;;;;;;4109937;28;20708;-77
2021/12/15 03:57:03;;;;;;;20.40;9.67;;;6.50;99.90;;;;;;4107016;28;20914;-77
2021/12/15 03:59:06;;;;;;;18.23;8.63;;;6.50;99.90;;;;;;4107947;28;20532;-80
2021/12/15 04:01:12;;;;;;;16.93;8.07;;;6.40;99.90;;;;;;4110515;28;20976;-77
2021/12/15 04:03:20;;;;;;;20.27;9.33;;;6.50;99.90;;;;;;4113211;28;20458;-77
2021/12/15 04:05:23;;;;;;;20.87;9.43;;;6.50;99.90;;;;;;4111024;28;20485;-77
2021/12/15 04:07:25;;;;;;;21.20;9.57;;;6.40;99.90;;;;;;4105653;28;20474;-78
2021/12/15 04:09:27;;;;;;;18.07;8.87;;;6.50;99.90;;;;;;4098705;28;20487;-78
2021/12/15 04:11:33;;;;;;;18.53;8.73;;;6.50;99.90;;;;;;4098182;28;20615;-78
2021/12/15 04:13:35;;;;;;;18.50;9.13;;;6.40;99.90;;;;;;4108142;28;20464;-80
2021/12/15 04:15:44;;;;;;;16.17;8.60;;;6.40;99.90;;;;;;4109687;28;20494;-79
2021/12/15 04:17:46;;;;;;;20.40;9.70;;;6.40;99.90;;;;;;4108633;28;20474;-77
2021/12/15 04:19:48;;;;;;;18.43;9.40;;;6.40;99.90;;;;;;4108892;28;20462;-77
2021/12/15 04:21:50;;;;;;;19.43;9.33;;;6.40;99.90;;;;;;4100561;28;20470;-80
2021/12/15 04:23:53;;;;;;;18.57;9.27;;;6.50;99.90;;;;;;4100854;28;20507;-77
2021/12/15 04:25:58;;;;;;;19.07;9.33;;;6.40;99.90;;;;;;4101953;28;20561;-81
2021/12/15 04:28:03;;;;;;;17.17;8.50;;;6.40;99.90;;;;;;4113289;28;20463;-79
2021/12/15 04:30:08;;;;;;;17.43;8.67;;;6.50;99.90;;;;;;4103768;28;20863;-79
2021/12/15 04:32:16;;;;;;;16.93;8.10;;;6.50;99.90;;;;;;4097832;28;20598;-80
2021/12/15 04:34:18;;;;;;;16.80;8.30;;;6.40;99.90;;;;;;4101712;28;20486;-79
2021/12/15 04:36:20;;;;;;;19.30;8.90;;;6.50;99.90;;;;;;4098127;28;20570;-78
2021/12/15 04:38:24;;;;;;;17.17;8.60;;;6.50;99.90;;;;;;4097906;29;20472;-77
2021/12/15 04:40:27;;;;;;;19.90;8.73;;;6.50;99.90;;;;;;4102979;28;20480;-77
2021/12/15 04:42:29;;;;;;;17.03;8.50;;;6.50;99.90;;;;;;4114152;28;20970;-78
2021/12/15 04:44:33;;;;;;;16.43;8.17;;;6.50;99.90;;;;;;4098319;28;20510;-77
2021/12/15 04:46:38;;;;;;;15.93;7.77;;;6.50;99.90;;;;;;4110856;28;20505;-78
2021/12/15 04:48:43;;;;;;;17.67;8.43;;;6.50;99.90;;;;;;4104439;28;20484;-80
2021/12/15 04:50:45;;;;;;;18.63;8.70;;;6.50;99.90;;;;;;4103562;28;21025;-78
2021/12/15 04:52:47;;;;;;;17.60;8.57;;;6.50;99.90;;;;;;4104567;28;20572;-77
2021/12/15 04:54:50;;;;;;;15.03;7.57;;;6.50;99.90;;;;;;4102356;28;20750;-78
2021/12/15 04:56:52;;;;;;;14.57;7.70;;;6.50;99.90;;;;;;4110529;28;20517;-77
2021/12/15 04:58:56;;;;;;;16.83;8.40;;;6.50;99.90;;;;;;4105783;28;20542;-81
2021/12/15 05:01:01;;;;;;;15.60;8.17;;;6.50;99.90;;;;;;4096614;28;20552;-79
2021/12/15 05:03:03;;;;;;;16.63;8.33;;;6.50;99.90;;;;;;4103684;28;20470;-80
2021/12/15 05:05:08;;;;;;;16.27;8.63;;;6.50;99.90;;;;;;4101189;28;21082;-79
2021/12/15 05:07:11;;;;;;;16.90;7.90;;;6.50;99.90;;;;;;4100879;28;20463;-82
2021/12/15 05:09:14;;;;;;;16.37;7.93;;;6.60;99.90;;;;;;4105721;28;20477;-80
2021/12/15 05:11:16;;;;;;;15.90;8.00;;;6.50;99.90;;;;;;4101170;28;20998;-77
2021/12/15 05:13:19;;;;;;;17.33;8.03;;;6.60;99.90;;;;;;4098844;28;20526;-77
2021/12/15 05:15:21;;;;;;;17.17;8.80;;;6.60;99.90;;;;;;4096024;28;20498;-81
2021/12/15 05:17:23;;;;;;;16.53;7.53;;;6.60;99.90;;;;;;4097173;28;20475;-80
2021/12/15 05:19:27;;;;;;;20.00;8.83;;;6.60;99.90;;;;;;4098173;28;20582;-80
2021/12/15 05:21:31;;;;;;;16.43;8.20;;;6.60;99.90;;;;;;4099853;28;20849;-80
2021/12/15 05:23:33;;;;;;;14.10;7.53;;;6.60;99.90;;;;;;4104296;28;20612;-83
2021/12/15 05:25:36;;;;;;;17.13;8.30;;;6.60;99.90;;;;;;4096480;29;20505;-77
2021/12/15 05:27:38;;;;;;;16.53;8.10;;;6.60;99.90;;;;;;4098236;28;20474;-78
2021/12/15 05:29:42;;;;;;;15.97;8.40;;;6.50;99.90;;;;;;4106026;28;20452;-80
2021/12/15 05:31:45;;;;;;;18.60;8.67;;;6.60;99.90;;;;;;4108914;28;20484;-79
2021/12/15 05:33:46;;;;;;;15.20;8.07;;;6.60;99.90;;;;;;4100034;28;20450;-77
2021/12/15 05:35:49;;;;;;;15.80;8.37;;;6.60;99.90;;;;;;4110215;28;20565;-77
2021/12/15 05:37:55;;;;;;;15.70;8.03;;;6.60;99.90;;;;;;4110091;28;20561;-77
2021/12/15 05:39:57;;;;;;;18.03;8.83;;;6.60;99.90;;;;;;4104873;28;20543;-81
2021/12/15 05:42:00;;;;;;;16.80;7.90;;;6.60;99.90;;;;;;4108866;28;20876;-77
2021/12/15 05:44:03;;;;;;;19.70;8.67;;;6.60;99.90;;;;;;4100116;28;21106;-78
2021/12/15 05:46:05;;;;;;;16.17;7.90;;;6.60;99.90;;;;;;4111107;28;20536;-77
2021/12/15 05:48:09;;;;;;;18.33;8.60;;;6.60;99.90;;;;;;4105951;28;20462;-80
2021/12/15 05:50:14;;;;;;;19.80;8.70;;;6.60;99.90;;;;;;4101239;28;20957;-84
2021/12/15 05:52:16;;;;;;;14.33;7.87;;;6.60;99.90;;;;;;4108022;28;20500;-81
2021/12/15 05:54:20;;;;;;;17.47;8.33;;;6.60;99.90;;;;;;4107826;28;20487;-80
2021/12/15 05:56:22;;;;;;;17.10;8.13;;;6.60;99.90;;;;;;4105043;28;20466;-78
2021/12/15 05:58:24;;;;;;;20.63;9.37;;;6.60;99.90;;;;;;4110367;28;20469;-77
2021/12/15 06:00:29;;;;;;;19.33;9.00;;;6.60;99.90;;;;;;4105881;28;20510;-79
2021/12/15 06:02:31;;;;;;;20.20;9.33;;;6.60;99.90;;;;;;4100225;28;20512;-81
2021/12/15 06:04:36;;;;;;;19.17;9.47;;;6.60;99.90;;;;;;4105491;28;20597;-86
2021/12/15 06:06:38;;;;;;;18.47;9.30;;;6.60;99.90;;;;;;4122984;28;20454;-76
2021/12/15 06:08:40;;;;;;;18.13;8.87;;;6.60;99.90;;;;;;4106059;28;20543;-85
2021/12/15 06:10:43;;;;;;;17.73;9.00;;;6.60;99.90;;;;;;4103238;28;20537;-78
2021/12/15 06:12:47;;;;;;;18.93;8.80;;;6.60;99.90;;;;;;4098474;28;20988;-78
2021/12/15 06:14:49;;;;;;;18.37;9.43;;;6.60;99.90;;;;;;4106286;28;20479;-78
2021/12/15 06:16:51;;;;;;;20.00;9.47;;;6.50;99.90;;;;;;4104008;28;20564;-79
2021/12/15 06:18:54;;;;;;;20.20;9.30;;;6.50;99.90;;;;;;4104515;28;20472;-79
2021/12/15 06:20:56;;;;;;;15.93;8.23;;;6.50;99.90;;;;;;4108159;28;20469;-78
2021/12/15 06:23:00;;;;;;;19.57;9.33;;;6.50;99.90;;;;;;4099933;28;21048;-77
2021/12/15 06:25:02;;;;;;;20.60;9.57;;;6.50;99.90;;;;;;4101134;28;20898;-78
2021/12/15 06:27:15;;;;;;;17.73;9.17;;;6.50;99.90;;;;;;4103308;28;20598;-77
2021/12/15 06:29:18;;;;;;;18.90;9.00;;;6.50;99.90;;;;;;4105041;28;20467;-78
2021/12/15 06:31:20;;;;;;;23.27;9.07;;;6.50;99.90;;;;;;4100860;28;20517;-81
2021/12/15 06:33:22;;;;;;;19.90;8.97;;;6.40;99.90;;;;;;4101811;28;20524;-80
2021/12/15 06:35:24;;;;;;;20.60;9.53;;;6.40;99.90;;;;;;4104800;28;20489;-78
2021/12/15 06:37:26;;;;;;;19.87;9.43;;;6.40;99.90;;;;;;4101045;28;20498;-81
2021/12/15 06:39:29;;;;;;;19.47;9.00;;;6.30;99.90;;;;;;4104349;28;20515;-79
2021/12/15 06:41:32;;;;;;;18.57;9.50;;;6.30;99.90;;;;;;4099842;28;20552;-83
2021/12/15 06:43:37;;;;;;;20.63;9.47;;;6.30;99.90;;;;;;4106444;28;20540;-82
2021/12/15 06:45:52;;;;;;;20.80;9.43;;;6.30;99.90;;;;;;4103208;28;20529;-77
2021/12/15 06:59:35;;;;;;;18.77;9.23;;;6.30;99.90;;;;;;4101740;28;20843;-77
2021/12/15 07:01:37;;;;;;;20.07;9.20;;;6.30;99.90;;;;;;4108555;28;20473;-82
2021/12/15 07:03:39;;;;;;;21.33;9.50;;;6.30;99.90;;;;;;4112197;28;20480;-82
2021/12/15 07:05:41;;;;;;;22.60;9.80;;;6.30;99.90;;;;;;4138984;23;20579;-79
2021/12/15 07:07:46;;;;;;;20.07;9.30;;;6.30;99.90;;;;;;4112990;28;20473;-79
2021/12/15 07:09:48;;;;;;;21.13;9.47;;;6.30;99.90;;;;;;4113202;28;20528;-78
2021/12/15 07:11:52;;;;;;;18.20;9.27;;;6.30;99.90;;;;;;4113854;28;20511;-78
2021/12/15 07:13:54;;;;;;;19.80;9.00;;;6.30;99.90;;;;;;4110309;28;20544;-78
2021/12/15 07:16:08;;;;;;;18.67;8.83;;;6.30;99.90;;;;;;4099033;28;20530;-78
2021/12/15 07:18:12;;;;;;;19.03;9.30;;;6.40;99.90;;;;;;4097076;28;20533;-77
2021/12/15 07:20:32;;;;;;;21.03;9.30;;;6.30;99.90;;;;;;4098089;28;20502;-77
2021/12/15 07:22:43;;;;;;;22.07;9.67;;;6.40;99.90;;;;;;4094275;28;20507;-77
2021/12/15 07:24:45;;;;;;;19.20;9.03;;;6.60;99.90;;;;;;4094986;28;20494;-76
2021/12/15 07:26:47;;;;;;;18.27;9.00;;;6.40;99.90;;;;;;4098751;28;20513;-79
2021/12/15 07:28:49;;;;;;;22.00;9.50;;;6.40;99.90;;;;;;4096487;28;20566;-80
2021/12/15 07:30:55;;;;;;;20.80;9.37;;;6.40;99.90;;;;;;4096115;28;20510;-81
2021/12/15 07:32:58;;;;;;;23.67;10.50;;;6.40;99.90;;;;;;4097010;28;20498;-77
2021/12/15 07:35:00;;;;;;;22.20;10.07;;;6.50;99.90;;;;;;4096133;28;20527;-79
2021/12/15 07:37:02;;;;;;;21.17;9.53;;;6.50;99.90;;;;;;4095618;28;20514;-78
2021/12/15 07:39:05;;;;;;;22.70;10.23;;;6.50;99.90;;;;;;4095511;28;20538;-78
2021/12/15 07:41:09;;;;;;;19.90;9.57;;;6.50;99.90;;;;;;4091810;28;20572;-81
2021/12/15 07:43:23;;;;;;;19.63;9.03;;;6.50;99.90;;;;;;4095046;28;20527;-78
2021/12/15 07:45:27;;;;;;;18.47;9.07;;;6.50;99.90;;;;;;4096254;28;20491;-80
2021/12/15 07:47:29;;;;;;;18.70;8.90;;;6.50;99.90;;;;;;4097345;28;20477;-78
2021/12/15 07:49:33;;;;;;;19.17;9.27;;;6.60;99.90;;;;;;4097981;28;20548;-79
2021/12/15 07:51:36;;;;;;;17.83;8.37;;;6.50;99.90;;;;;;4097777;28;20456;-80
2021/12/15 07:53:42;;;;;;;20.10;8.87;;;6.60;99.90;;;;;;4097344;28;20586;-80
2021/12/15 07:55:44;;;;;;;17.17;8.77;;;6.60;99.90;;;;;;4095900;28;20522;-79
2021/12/15 07:57:46;;;;;;;16.20;8.53;;;6.60;99.90;;;;;;4093249;28;20523;-80
2021/12/15 07:59:49;;;;;;;17.83;8.67;;;6.60;99.90;;;;;;4097565;28;20458;-78
2021/12/15 08:01:52;;;;;;;18.20;8.53;;;6.60;99.90;;;;;;4097351;28;20486;-78
2021/12/15 08:03:55;;;;;;;18.10;8.00;;;6.60;99.90;;;;;;4098394;28;20835;-80
2021/12/15 08:05:59;;;;;;;17.97;8.07;;;6.60;99.90;;;;;;4095445;28;20513;-78
2021/12/15 08:08:01;;;;;;;17.67;8.37;;;6.70;99.90;;;;;;4095156;28;20474;-79
2021/12/15 08:10:09;;;;;;;19.30;8.63;;;6.70;99.90;;;;;;4095249;28;20470;-80
2021/12/15 08:12:11;;;;;;;20.00;9.23;;;6.70;99.90;;;;;;4096813;28;20818;-80
2021/12/15 08:14:13;;;;;;;17.17;7.97;;;6.70;99.90;;;;;;4095999;28;21077;-81
2021/12/15 08:16:19;;;;;;;16.83;8.60;;;6.70;99.90;;;;;;4094256;28;20484;-78
2021/12/15 08:18:21;;;;;;;14.83;7.60;;;6.70;99.90;;;;;;4099439;28;20553;-79
2021/12/15 08:20:25;;;;;;;17.87;8.77;;;6.70;99.90;;;;;;4094545;28;20461;-79
2021/12/15 08:22:29;;;;;;;17.27;7.83;;;6.70;99.90;;;;;;4096138;28;20466;-82
2021/12/15 08:24:31;;;;;;;17.33;8.40;;;6.70;99.90;;;;;;4095380;28;21086;-79
2021/12/15 08:26:33;;;;;;;19.23;8.40;;;6.70;99.90;;;;;;4096108;28;20952;-80
2021/12/15 08:28:36;;;;;;;14.43;7.93;;;6.70;99.90;;;;;;4095437;28;20909;-81
2021/12/15 08:30:40;;;;;;;17.47;8.03;;;6.70;99.90;;;;;;4096995;28;20964;-81
2021/12/15 08:32:42;;;;;;;17.10;7.70;;;6.70;99.90;;;;;;4098727;28;20459;-81
2021/12/15 08:34:44;;;;;;;15.27;7.93;;;6.70;99.90;;;;;;4095603;28;20499;-81
2021/12/15 08:36:49;;;;;;;16.80;8.20;;;6.80;99.90;;;;;;4098116;28;20468;-82
2021/12/15 08:38:53;;;;;;;15.70;7.60;;;6.80;99.90;;;;;;4097296;28;20483;-81
2021/12/15 08:40:55;;;;;;;17.80;8.30;;;6.80;99.90;;;;;;4095081;28;20496;-81
2021/12/15 08:42:59;;;;;;;16.87;7.97;;;6.80;99.90;;;;;;4094569;28;20506;-80
2021/12/15 08:45:01;;;;;;;17.40;7.97;;;6.80;99.90;;;;;;4095211;28;20510;-80
2021/12/15 08:47:05;;;;;;;16.00;7.93;;;6.80;99.90;;;;;;4094795;28;20529;-81
2021/12/15 08:49:16;;;;;;;15.20;7.50;;;6.80;99.90;;;;;;4098479;28;20466;-82
2021/12/15 08:51:25;;;;;;;16.87;7.00;;;7.10;99.90;;;;;;4095064;28;20565;-79
2021/12/15 08:53:27;;;;;;;16.20;7.30;;;6.80;99.90;;;;;;4096787;28;20777;-81
2021/12/15 08:55:31;;;;;;;15.20;7.40;;;6.90;99.90;;;;;;4092283;28;20545;-80
2021/12/15 08:57:33;;;;;;;14.00;7.07;;;6.90;99.90;;;;;;4096630;28;20884;-81
2021/12/15 08:59:35;;;;;;;15.00;7.40;;;6.90;99.90;;;;;;4094685;28;20504;-81
2021/12/15 09:01:38;;;;;;;13.27;7.00;;;6.90;99.90;;;;;;4093562;28;20592;-78
2021/12/15 09:03:42;;;;;;;17.13;7.77;;;6.90;99.90;;;;;;4093266;28;20493;-80
2021/12/15 09:05:46;;;;;;;14.50;6.80;;;6.90;99.90;;;;;;4094147;28;20562;-81
2021/12/15 09:07:52;;;;;;;14.47;7.03;;;6.90;99.90;;;;;;4097470;28;20701;-81
2021/12/15 09:09:54;;;;;;;14.83;7.10;;;7.00;99.90;;;;;;4095142;28;20915;-80
2021/12/15 09:11:58;;;;;;;13.83;6.83;;;7.00;99.90;;;;;;4092273;28;20508;-80
2021/12/15 09:14:01;;;;;;;13.83;7.50;;;7.00;99.90;;;;;;4095222;28;20934;-80
2021/12/15 09:16:07;;;;;;;14.30;7.00;;;7.00;99.90;;;;;;4095043;28;20958;-80
2021/12/15 09:18:11;;;;;;;12.90;6.70;;;7.00;99.90;;;;;;4095125;28;20568;-81
2021/12/15 09:20:15;;;;;;;14.27;6.83;;;7.00;99.90;;;;;;4097068;28;20571;-79
2021/12/15 09:22:17;;;;;;;15.30;7.53;;;7.00;99.90;;;;;;4097195;28;20622;-79
2021/12/15 09:24:20;;;;;;;13.33;6.63;;;7.00;99.90;;;;;;4097469;28;20464;-79
2021/12/15 09:26:22;;;;;;;14.83;7.23;;;7.00;99.90;;;;;;4095317;28;20499;-79
2021/12/15 09:28:29;;;;;;;12.87;6.37;;;7.10;99.90;;;;;;4094971;28;20471;-79
2021/12/15 09:30:43;;;;;;;15.93;7.07;;;7.10;99.90;;;;;;4096761;28;20525;-80
2021/12/15 09:32:46;;;;;;;14.33;6.90;;;7.10;99.90;;;;;;4095546;28;20465;-81
2021/12/15 09:34:48;;;;;;;13.10;6.90;;;7.10;99.90;;;;;;4096006;28;21077;-80
2021/12/15 09:36:54;;;;;;;13.43;6.33;;;7.10;99.90;;;;;;4094713;28;20490;-81
2021/12/15 09:38:59;;;;;;;13.80;6.90;;;7.10;99.90;;;;;;4095179;28;20484;-78
2021/12/15 09:41:05;;;;;;;11.57;6.13;;;7.20;99.90;;;;;;4095963;28;20547;-80
2021/12/15 09:43:07;;;;;;;13.00;6.40;;;7.10;99.90;;;;;;4097295;28;20524;-79
2021/12/15 09:45:24;;;;;;;12.67;5.93;;;7.10;99.90;;;;;;4095460;28;20504;-80
2021/12/15 09:47:43;;;;;;;13.50;7.17;;;7.20;99.90;;;;;;4098463;28;20472;-79
2021/12/15 10:04:07;;;;;;;13.00;6.43;;;7.20;99.90;;;;;;4097774;28;20455;-80
2021/12/15 10:06:23;;;;;;;15.23;6.57;;;7.20;99.90;;;;;;4097203;28;20485;-78
2021/12/15 10:11:10;;;;;;;13.30;6.10;;;7.30;99.90;;;;;;4099294;28;20486;-80
2021/12/15 10:18:05;;;;;;;13.20;6.03;;;7.40;99.90;;;;;;4097124;28;20461;-82
2021/12/15 10:20:23;;;;;;;12.93;6.43;;;7.40;99.90;;;;;;4104325;28;20845;-83
2021/12/15 10:22:33;;;;;;;13.40;6.30;;;7.50;99.90;;;;;;4100336;28;20539;-80
2021/12/15 10:24:53;;;;;;;17.53;6.63;;;7.50;99.90;;;;;;4102137;28;20478;-79
2021/12/15 10:26:58;;;;;;;11.83;6.40;;;7.50;99.90;;;;;;4101844;28;21022;-79
2021/12/15 10:29:07;;;;;;;12.07;6.57;;;7.60;99.90;;;;;;4100481;28;20483;-78
2021/12/15 10:31:13;;;;;;;10.83;6.17;;;7.60;99.90;;;;;;4097087;28;20460;-80
2021/12/15 10:33:20;;;;;;;13.17;6.73;;;7.60;99.90;;;;;;4096900;28;20941;-80
2021/12/15 10:35:25;;;;;;;14.00;7.07;;;7.70;99.90;;;;;;4096072;28;20603;-80
2021/12/15 10:37:28;;;;;;;11.67;6.07;;;7.70;99.90;;;;;;4098375;28;20488;-78
2021/12/15 10:39:30;;;;;;;13.27;6.43;;;7.80;99.90;;;;;;4096327;28;20521;-78
2021/12/15 10:41:35;;;;;;;12.77;7.10;;;7.80;99.90;;;;;;4100095;28;20500;-81
2021/12/15 10:43:49;;;;;;;11.07;5.90;;;7.80;99.90;;;;;;4099880;28;20476;-79
2021/12/15 10:45:53;;;;;;;12.50;6.23;;;7.90;99.90;;;;;;4098161;28;20495;-78
2021/12/15 10:47:58;;;;;;;10.30;6.00;;;7.90;99.90;;;;;;4099674;28;20893;-83
2021/12/15 10:50:01;;;;;;;12.23;6.73;;;8.00;99.90;;;;;;4097696;28;21054;-79
2021/12/15 10:52:11;;;;;;;10.77;6.03;;;7.90;99.90;;;;;;4102099;28;20481;-81
2021/12/15 10:54:16;;;;;;;12.63;6.83;;;7.90;99.90;;;;;;4101799;28;20493;-80
2021/12/15 10:56:21;;;;;;;11.53;6.47;;;8.00;99.90;;;;;;4098951;28;20885;-79
2021/12/15 10:58:36;;;;;;;13.63;6.60;;;8.00;99.90;;;;;;4100713;28;20476;-80
2021/12/15 11:00:38;;;;;;;10.93;6.17;;;8.00;99.90;;;;;;4097067;28;20981;-79
2021/12/15 11:02:41;;;;;;;12.80;6.93;;;8.00;99.90;;;;;;4101230;28;20812;-78
2021/12/15 11:04:47;;;;;;;11.30;6.17;;;8.10;99.90;;;;;;4100338;28;20489;-77
2021/12/15 11:07:13;;;;;;;11.13;6.20;;;8.10;99.90;;;;;;4104470;28;20457;-80
2021/12/15 11:09:20;;;;;;;10.20;5.50;;;8.10;99.90;;;;;;4099273;28;20512;-79
2021/12/15 11:11:29;;;;;;;12.13;6.30;;;8.20;99.90;;;;;;4097965;28;20959;-79
2021/12/15 11:13:33;;;;;;;10.67;6.30;;;8.20;99.90;;;;;;4099114;28;20475;-81
2021/12/15 11:15:40;;;;;;;12.47;6.80;;;8.30;99.90;;;;;;4097577;28;20507;-76
2021/12/15 11:17:44;;;;;;;10.37;5.67;;;8.40;99.90;;;;;;4097644;28;20477;-77
2021/12/15 11:19:55;;;;;;;9.90;5.80;;;8.40;99.90;;;;;;4099918;28;20499;-78
2021/12/15 11:21:57;;;;;;;11.83;6.00;;;8.40;99.90;;;;;;4096928;28;20469;-78
2021/12/15 11:24:01;;;;;;;11.83;6.20;;;8.50;99.90;;;;;;4097964;28;20501;-79
2021/12/15 11:26:07;;;;;;;10.50;5.97;;;8.50;99.90;;;;;;4097385;28;20519;-79
2021/12/15 11:28:14;;;;;;;12.40;6.73;;;8.50;99.90;;;;;;4098753;28;21074;-79
2021/12/15 11:30:24;;;;;;;10.53;6.20;;;8.80;99.90;;;;;;4098862;28;20469;-79
2021/12/15 11:32:42;;;;;;;10.20;5.43;;;8.60;99.90;;;;;;4098805;28;20581;-81
2021/12/15 11:35:01;;;;;;;11.33;6.03;;;8.70;99.90;;;;;;4097168;28;20321;-79
2021/12/15 11:37:04;;;;;;;11.20;6.03;;;8.70;99.90;;;;;;4095608;28;20457;-80
2021/12/15 11:39:13;;;;;;;9.80;5.63;;;8.80;99.90;;;;;;4096147;28;20477;-80
2021/12/15 11:41:18;;;;;;;9.47;5.70;;;8.80;99.90;;;;;;4097652;28;20249;-79
2021/12/15 11:43:29;;;;;;;8.47;5.43;;;8.80;99.90;;;;;;4099348;28;20477;-77
2021/12/15 11:45:32;;;;;;;9.83;5.47;;;8.90;99.90;;;;;;4100111;28;20316;-78
2021/12/15 11:47:35;;;;;;;9.40;5.50;;;8.80;99.90;;;;;;4096989;28;20248;-78